Time;durP1;ratioP1;P1;durP2;ratioP2;P2;SDS_P1;SDS_P2;PMS_P1;PMS_P2;Temp;Humidity;BMP_temperature;BMP_pressure;BME280_temperature;BME280_humidity;BME280_pressure;Samples;Min_cycle;Max_cycle;Signal;HPM_P1;HPM_P2
2023/07/23 00:01:20;;;;;;;8.90;4.97;;;;;;;;;;779722;180;918856;-57
2023/07/23 00:03:46;;;;;;;6.97;4.85;;;;;;;;;;769627;180;918839;-59
2023/07/23 00:06:12;;;;;;;7.87;4.70;;;;;;;;;;770199;180;919539;-53
2023/07/23 00:08:38;;;;;;;5.10;4.20;;;;;;;;;;777011;180;918771;-53
2023/07/23 00:11:04;;;;;;;7.30;5.40;;;;;;;;;;770919;180;919387;-58
2023/07/23 00:13:29;;;;;;;14.73;5.73;;;;;;;;;;772707;180;919537;-58
2023/07/23 00:15:55;;;;;;;6.40;5.00;;;;;;;;;;772741;180;927511;-53
2023/07/23 00:18:21;;;;;;;6.00;4.60;;;;;;;;;;774122;181;921825;-54
2023/07/23 00:20:47;;;;;;;6.47;4.80;;;;;;;;;;776429;180;919259;-53
2023/07/23 00:23:13;;;;;;;6.10;5.07;;;;;;;;;;773190;180;919033;-57
2023/07/23 00:25:39;;;;;;;6.27;4.40;;;;;;;;;;779298;179;921545;-57
2023/07/23 00:28:06;;;;;;;8.80;4.83;;;;;;;;;;774860;180;922693;-57
2023/07/23 00:30:30;;;;;;;6.93;4.50;;;;;;;;;;767720;181;921387;-54
2023/07/23 00:32:56;;;;;;;6.20;4.13;;;;;;;;;;778598;179;919293;-58
2023/07/23 00:35:23;;;;;;;7.47;4.73;;;;;;;;;;777397;179;817406;-57
2023/07/23 00:37:48;;;;;;;6.50;4.20;;;;;;;;;;777761;179;817342;-57
2023/07/23 00:40:14;;;;;;;8.00;5.32;;;;;;;;;;781367;179;919644;-54
2023/07/23 00:42:40;;;;;;;8.00;6.30;;;;;;;;;;772168;180;920044;-57
2023/07/23 00:45:06;;;;;;;8.30;5.20;;;;;;;;;;772070;180;921405;-57
2023/07/23 00:47:32;;;;;;;9.80;4.97;;;;;;;;;;776065;178;914418;-56
2023/07/23 00:49:58;;;;;;;5.63;4.50;;;;;;;;;;782959;179;813578;-58
2023/07/23 00:52:24;;;;;;;9.03;5.27;;;;;;;;;;777065;179;915662;-53
2023/07/23 00:54:50;;;;;;;5.95;5.15;;;;;;;;;;769969;180;916347;-57
2023/07/23 00:57:16;;;;;;;9.57;4.73;;;;;;;;;;775357;180;855091;-60
2023/07/23 00:59:41;;;;;;;6.60;4.77;;;;;;;;;;777341;180;922092;-58
2023/07/23 01:02:07;;;;;;;5.53;4.63;;;;;;;;;;770293;179;920795;-53
2023/07/23 01:04:33;;;;;;;9.90;5.63;;;;;;;;;;774771;180;872785;-58
2023/07/23 01:06:59;;;;;;;7.93;4.47;;;;;;;;;;776019;179;920005;-57
2023/07/23 01:09:25;;;;;;;8.90;4.97;;;;;;;;;;767921;180;922145;-58
2023/07/23 01:11:51;;;;;;;7.70;5.53;;;;;;;;;;771841;178;926490;-57
2023/07/23 01:14:17;;;;;;;6.60;5.03;;;;;;;;;;779312;180;922357;-57
2023/07/23 01:16:42;;;;;;;6.27;4.80;;;;;;;;;;772509;179;922964;-57
2023/07/23 01:19:08;;;;;;;6.67;4.57;;;;;;;;;;772285;180;934691;-57
2023/07/23 01:21:34;;;;;;;6.47;4.53;;;;;;;;;;780321;179;921404;-53
2023/07/23 01:24:00;;;;;;;7.63;4.60;;;;;;;;;;774129;180;854896;-53
2023/07/23 01:26:26;;;;;;;6.18;4.70;;;;;;;;;;776107;179;920048;-53
2023/07/23 01:28:52;;;;;;;10.40;4.63;;;;;;;;;;780777;180;811782;-53
2023/07/23 01:31:17;;;;;;;6.83;4.80;;;;;;;;;;774003;179;919051;-54
2023/07/23 01:33:43;;;;;;;6.80;5.43;;;;;;;;;;773493;180;919276;-56
2023/07/23 01:36:09;;;;;;;7.37;5.37;;;;;;;;;;770894;179;919413;-53
2023/07/23 01:38:35;;;;;;;8.43;5.30;;;;;;;;;;768737;181;918986;-57
2023/07/23 01:41:01;;;;;;;6.80;5.30;;;;;;;;;;776561;180;920269;-57
2023/07/23 01:43:27;;;;;;;9.03;5.00;;;;;;;;;;773046;180;919301;-52
2023/07/23 01:45:53;;;;;;;8.97;5.63;;;;;;;;;;775817;180;923692;-53
2023/07/23 01:48:18;;;;;;;8.10;5.53;;;;;;;;;;775113;180;917040;-53
2023/07/23 01:50:44;;;;;;;6.33;5.20;;;;;;;;;;768264;181;919251;-53
2023/07/23 01:53:10;;;;;;;8.00;5.83;;;;;;;;;;772045;181;919016;-57
2023/07/23 01:55:36;;;;;;;5.67;4.23;;;;;;;;;;769861;180;920016;-53
2023/07/23 01:58:02;;;;;;;6.87;4.60;;;;;;;;;;773130;178;931310;-57
2023/07/23 02:00:28;;;;;;;10.25;5.10;;;;;;;;;;774998;179;915260;-58
2023/07/23 02:02:54;;;;;;;12.43;5.37;;;;;;;;;;776023;180;916063;-53
2023/07/23 02:05:22;;;;;;;6.10;4.03;;;;;;;;;;774170;178;919271;-53
2023/07/23 02:07:46;;;;;;;14.40;5.47;;;;;;;;;;769436;180;919604;-58
2023/07/23 02:10:12;;;;;;;8.27;4.43;;;;;;;;;;780236;179;921126;-53
2023/07/23 02:12:37;;;;;;;6.90;4.70;;;;;;;;;;773581;180;905318;-53
2023/07/23 02:15:04;;;;;;;7.93;4.90;;;;;;;;;;775125;180;917305;-53
2023/07/23 02:17:30;;;;;;;4.20;3.47;;;;;;;;;;778361;180;851979;-57
2023/07/23 02:19:55;;;;;;;7.87;4.57;;;;;;;;;;774246;180;919883;-58
2023/07/23 02:22:21;;;;;;;6.27;4.10;;;;;;;;;;772808;180;915896;-52
2023/07/23 02:24:47;;;;;;;6.37;4.93;;;;;;;;;;779685;180;918569;-61
2023/07/23 02:27:13;;;;;;;8.57;4.40;;;;;;;;;;771952;180;921023;-57
2023/07/23 02:29:39;;;;;;;6.37;5.30;;;;;;;;;;771959;180;920691;-53
2023/07/23 02:32:05;;;;;;;8.30;5.30;;;;;;;;;;769929;180;912783;-58
2023/07/23 02:34:31;;;;;;;6.33;4.20;;;;;;;;;;778516;180;816674;-57
2023/07/23 02:36:57;;;;;;;7.50;4.93;;;;;;;;;;773432;180;818639;-54
2023/07/23 02:39:23;;;;;;;6.10;4.67;;;;;;;;;;776205;179;897364;-53
2023/07/23 02:41:48;;;;;;;13.00;5.40;;;;;;;;;;776848;180;919117;-58
2023/07/23 02:44:14;;;;;;;7.40;5.13;;;;;;;;;;775064;179;917954;-57
2023/07/23 02:46:40;;;;;;;10.63;4.80;;;;;;;;;;773531;181;919694;-53
2023/07/23 02:49:06;;;;;;;5.60;4.77;;;;;;;;;;781054;179;918882;-59
2023/07/23 02:51:32;;;;;;;9.10;4.80;;;;;;;;;;767507;181;920180;-57
2023/07/23 02:53:58;;;;;;;6.43;5.10;;;;;;;;;;768315;180;919496;-53
2023/07/23 02:56:24;;;;;;;5.37;4.63;;;;;;;;;;773821;179;917947;-58
2023/07/23 02:58:49;;;;;;;6.20;4.53;;;;;;;;;;776209;180;929401;-56
2023/07/23 03:01:15;;;;;;;6.60;4.63;;;;;;;;;;766351;181;922285;-57
2023/07/23 03:03:41;;;;;;;8.50;5.70;;;;;;;;;;773226;180;921059;-54
2023/07/23 03:06:07;;;;;;;6.07;4.67;;;;;;;;;;774028;179;820035;-58
2023/07/23 03:08:33;;;;;;;9.83;4.53;;;;;;;;;;773992;179;918569;-60
2023/07/23 03:10:58;;;;;;;5.73;4.67;;;;;;;;;;777035;178;817818;-58
2023/07/23 03:13:24;;;;;;;8.23;5.50;;;;;;;;;;781486;178;918976;-58
2023/07/23 03:15:50;;;;;;;6.67;4.97;;;;;;;;;;774556;178;918971;-56
2023/07/23 03:18:16;;;;;;;6.27;5.20;;;;;;;;;;776295;180;818627;-53
2023/07/23 03:20:42;;;;;;;6.53;5.07;;;;;;;;;;769591;180;918828;-57
2023/07/23 03:23:08;;;;;;;8.43;5.00;;;;;;;;;;768192;181;919280;-59
2023/07/23 03:25:34;;;;;;;6.10;4.47;;;;;;;;;;766831;180;848938;-53
2023/07/23 03:27:59;;;;;;;7.00;4.90;;;;;;;;;;762007;180;926553;-53
2023/07/23 03:30:25;;;;;;;7.80;5.27;;;;;;;;;;778001;180;919219;-53
2023/07/23 03:32:52;;;;;;;6.97;4.83;;;;;;;;;;773398;179;915655;-58
2023/07/23 03:35:17;;;;;;;8.27;5.00;;;;;;;;;;770983;180;1039204;-57
2023/07/23 03:37:43;;;;;;;9.10;5.15;;;;;;;;;;781204;180;846037;-53
2023/07/23 03:40:09;;;;;;;10.30;5.03;;;;;;;;;;776911;179;856323;-53
2023/07/23 03:42:35;;;;;;;11.80;4.80;;;;;;;;;;771832;181;936245;-58
2023/07/23 03:45:01;;;;;;;6.78;5.60;;;;;;;;;;778106;180;919371;-54
2023/07/23 03:47:27;;;;;;;6.87;4.83;;;;;;;;;;770566;181;922127;-58
2023/07/23 03:49:53;;;;;;;5.90;4.60;;;;;;;;;;778191;179;916593;-58
2023/07/23 03:52:19;;;;;;;7.50;5.10;;;;;;;;;;774402;180;918923;-58
2023/07/23 03:54:45;;;;;;;8.20;4.43;;;;;;;;;;776277;180;875038;-53
2023/07/23 03:57:11;;;;;;;14.50;6.50;;;;;;;;;;761942;181;918935;-53
2023/07/23 03:59:36;;;;;;;5.93;4.50;;;;;;;;;;772001;181;918936;-53
2023/07/23 04:02:02;;;;;;;6.47;4.40;;;;;;;;;;775627;180;917973;-57
2023/07/23 04:04:28;;;;;;;7.67;5.33;;;;;;;;;;776718;180;919877;-57
2023/07/23 04:06:54;;;;;;;8.10;5.03;;;;;;;;;;774763;179;925413;-53
2023/07/23 04:09:20;;;;;;;8.10;5.73;;;;;;;;;;774178;180;914171;-58
2023/07/23 04:11:46;;;;;;;7.60;4.97;;;;;;;;;;768971;180;919237;-53
2023/07/23 04:14:11;;;;;;;6.95;5.07;;;;;;;;;;774347;180;916932;-53
2023/07/23 04:16:37;;;;;;;8.30;5.77;;;;;;;;;;773107;180;918681;-54
2023/07/23 04:19:03;;;;;;;8.53;6.40;;;;;;;;;;778753;181;919016;-57
2023/07/23 04:21:29;;;;;;;7.20;5.47;;;;;;;;;;771376;177;919118;-53
2023/07/23 04:23:57;;;;;;;7.97;5.83;;;;;;;;;;771235;178;919352;-53
2023/07/23 04:26:22;;;;;;;10.20;6.70;;;;;;;;;;780682;178;918892;-58
2023/07/23 04:28:47;;;;;;;6.50;5.47;;;;;;;;;;772334;179;917504;-53
2023/07/23 04:31:13;;;;;;;8.05;6.10;;;;;;;;;;776762;180;919803;-58
2023/07/23 04:33:39;;;;;;;9.03;6.27;;;;;;;;;;780582;178;923288;-57
2023/07/23 04:36:05;;;;;;;8.37;6.67;;;;;;;;;;772392;180;923713;-53
2023/07/23 04:38:31;;;;;;;18.23;5.97;;;;;;;;;;773261;180;918749;-53
2023/07/23 04:40:57;;;;;;;12.37;6.93;;;;;;;;;;773954;180;919527;-53
2023/07/23 04:43:23;;;;;;;9.53;6.30;;;;;;;;;;773617;180;921985;-53
2023/07/23 04:45:48;;;;;;;8.83;5.83;;;;;;;;;;772138;180;921712;-59
2023/07/23 04:48:16;;;;;;;8.20;6.53;;;;;;;;;;768108;179;932427;-54
2023/07/23 04:50:40;;;;;;;12.13;6.70;;;;;;;;;;770241;180;919157;-59
2023/07/23 04:53:06;;;;;;;10.00;6.40;;;;;;;;;;773701;181;919316;-58
2023/07/23 04:55:32;;;;;;;9.25;6.75;;;;;;;;;;770403;180;916828;-54
2023/07/23 04:57:58;;;;;;;8.30;6.70;;;;;;;;;;773782;180;909298;-54
2023/07/23 05:00:23;;;;;;;7.90;5.80;;;;;;;;;;773011;180;918484;-54
2023/07/23 05:02:49;;;;;;;12.23;7.27;;;;;;;;;;771661;180;917921;-59
2023/07/23 05:05:15;;;;;;;8.07;6.10;;;;;;;;;;773632;180;921041;-54
2023/07/23 05:07:41;;;;;;;10.43;6.57;;;;;;;;;;772973;180;918053;-54
2023/07/23 05:10:07;;;;;;;10.77;6.90;;;;;;;;;;771717;180;919039;-57
2023/07/23 05:12:33;;;;;;;11.50;7.23;;;;;;;;;;770762;180;919330;-54
2023/07/23 05:15:04;;;;;;;8.20;6.80;;;;;;;;;;779401;180;919506;-57
2023/07/23 05:17:30;;;;;;;9.53;6.87;;;;;;;;;;774896;181;918942;-54
2023/07/23 05:19:56;;;;;;;9.17;6.50;;;;;;;;;;773470;180;919418;-54
2023/07/23 05:22:22;;;;;;;8.23;6.00;;;;;;;;;;778615;180;888212;-54
2023/07/23 05:24:48;;;;;;;8.23;5.97;;;;;;;;;;771226;180;920839;-54
2023/07/23 05:27:13;;;;;;;8.23;5.30;;;;;;;;;;770456;179;782155;-58
2023/07/23 05:29:39;;;;;;;6.53;5.10;;;;;;;;;;772705;180;916521;-58
2023/07/23 05:32:06;;;;;;;7.23;5.27;;;;;;;;;;776443;180;917390;-59
2023/07/23 05:34:31;;;;;;;9.33;5.60;;;;;;;;;;769208;179;922623;-54
2023/07/23 05:36:57;;;;;;;7.47;6.10;;;;;;;;;;775572;179;922305;-59
2023/07/23 05:39:23;;;;;;;7.47;5.60;;;;;;;;;;776799;180;816434;-59
2023/07/23 05:41:49;;;;;;;7.05;5.28;;;;;;;;;;776952;179;927178;-60
2023/07/23 05:44:16;;;;;;;7.47;4.80;;;;;;;;;;776803;180;915692;-54
2023/07/23 05:46:41;;;;;;;9.00;5.03;;;;;;;;;;779842;178;916214;-57
2023/07/23 05:49:06;;;;;;;7.70;4.78;;;;;;;;;;776054;179;918532;-58
2023/07/23 05:51:32;;;;;;;7.87;5.10;;;;;;;;;;772966;180;918485;-54
2023/07/23 05:53:59;;;;;;;7.15;4.60;;;;;;;;;;770297;180;918880;-54
2023/07/23 05:56:26;;;;;;;6.00;4.80;;;;;;;;;;773486;180;919031;-59
2023/07/23 06:10:22;;;;;;;6.77;3.43;;;;;;;;;;777146;180;913967;-61
2023/07/23 06:12:48;;;;;;;5.03;3.80;;;;;;;;;;770116;179;918288;-56
2023/07/23 06:15:14;;;;;;;5.70;3.43;;;;;;;;;;773938;180;928029;-60
2023/07/23 06:17:40;;;;;;;6.70;3.50;;;;;;;;;;779221;180;916535;-56
2023/07/23 06:20:07;;;;;;;4.60;3.50;;;;;;;;;;773463;180;919097;-56
2023/07/23 06:22:33;;;;;;;7.50;3.70;;;;;;;;;;774113;179;919550;-56
2023/07/23 06:24:59;;;;;;;5.20;3.73;;;;;;;;;;774819;180;915468;-56
2023/07/23 06:27:24;;;;;;;8.23;4.43;;;;;;;;;;777817;181;916874;-60
2023/07/23 06:29:50;;;;;;;6.60;4.40;;;;;;;;;;776421;180;918814;-56
2023/07/23 06:32:16;;;;;;;6.87;4.53;;;;;;;;;;772302;181;920511;-56
2023/07/23 06:34:42;;;;;;;7.23;3.37;;;;;;;;;;776541;180;922131;-60
2023/07/23 06:37:08;;;;;;;5.60;4.07;;;;;;;;;;767167;181;920872;-56
2023/07/23 06:39:34;;;;;;;5.37;3.93;;;;;;;;;;771014;180;922006;-62
2023/07/23 06:41:59;;;;;;;6.83;4.37;;;;;;;;;;777968;180;919277;-60
2023/07/23 06:44:25;;;;;;;8.23;3.50;;;;;;;;;;773996;179;817035;-56
2023/07/23 06:46:51;;;;;;;6.83;3.80;;;;;;;;;;772739;179;1123653;-60
2023/07/23 06:49:17;;;;;;;4.90;3.43;;;;;;;;;;771687;180;923447;-56
2023/07/23 06:51:43;;;;;;;5.50;3.83;;;;;;;;;;776242;180;919624;-60
2023/07/23 06:54:09;;;;;;;8.10;3.70;;;;;;;;;;775070;179;917398;-62
2023/07/23 06:56:35;;;;;;;6.57;3.73;;;;;;;;;;773383;180;918822;-60
2023/07/23 06:59:00;;;;;;;7.67;4.13;;;;;;;;;;780030;178;949350;-61
2023/07/23 07:01:26;;;;;;;5.70;4.00;;;;;;;;;;775227;180;919288;-61
2023/07/23 07:03:52;;;;;;;6.28;3.40;;;;;;;;;;771883;180;922913;-62
2023/07/23 07:06:18;;;;;;;6.53;4.00;;;;;;;;;;772715;180;919093;-60
2023/07/23 07:08:44;;;;;;;5.50;3.80;;;;;;;;;;772435;180;854491;-60
2023/07/23 07:11:10;;;;;;;5.23;3.30;;;;;;;;;;775665;179;919255;-59
2023/07/23 07:13:37;;;;;;;5.40;3.80;;;;;;;;;;777038;178;919730;-56
2023/07/23 07:16:02;;;;;;;6.20;3.20;;;;;;;;;;773175;180;816084;-57
2023/07/23 07:18:28;;;;;;;5.40;3.67;;;;;;;;;;771011;178;922938;-56
2023/07/23 07:20:54;;;;;;;4.73;3.33;;;;;;;;;;772287;179;911337;-56
2023/07/23 07:23:20;;;;;;;14.63;4.00;;;;;;;;;;774694;180;918870;-60
2023/07/23 07:25:46;;;;;;;6.57;3.77;;;;;;;;;;771652;179;918132;-56
2023/07/23 07:28:12;;;;;;;6.60;3.00;;;;;;;;;;772817;180;864065;-60
2023/07/23 07:30:39;;;;;;;6.10;3.40;;;;;;;;;;773495;180;913885;-62
2023/07/23 07:33:05;;;;;;;5.13;3.57;;;;;;;;;;776949;179;834113;-57
2023/07/23 07:35:31;;;;;;;6.27;3.47;;;;;;;;;;775534;180;747969;-63
2023/07/23 07:37:57;;;;;;;8.20;3.33;;;;;;;;;;774894;180;915872;-57
2023/07/23 07:40:23;;;;;;;9.83;4.00;;;;;;;;;;772228;179;812782;-60
2023/07/23 07:42:48;;;;;;;9.60;2.87;;;;;;;;;;772001;180;638358;-57
2023/07/23 07:45:14;;;;;;;6.93;3.43;;;;;;;;;;775348;180;629840;-57
2023/07/23 07:47:40;;;;;;;8.47;3.17;;;;;;;;;;777287;180;613939;-57
2023/07/23 07:50:08;;;;;;;7.00;3.37;;;;;;;;;;776895;180;638141;-62
2023/07/23 07:52:32;;;;;;;7.00;3.77;;;;;;;;;;777281;179;628898;-61
2023/07/23 07:54:59;;;;;;;5.03;4.00;;;;;;;;;;780829;180;620489;-61
2023/07/23 07:57:24;;;;;;;5.10;3.50;;;;;;;;;;777601;180;624522;-61
2023/07/23 07:59:50;;;;;;;6.90;3.70;;;;;;;;;;782157;179;625557;-57
2023/07/23 08:02:16;;;;;;;7.87;3.30;;;;;;;;;;772615;179;620821;-61
2023/07/23 08:04:42;;;;;;;7.53;3.53;;;;;;;;;;775506;179;712851;-57
2023/07/23 08:07:08;;;;;;;6.93;3.67;;;;;;;;;;776497;180;815210;-57
2023/07/23 08:09:33;;;;;;;5.60;3.40;;;;;;;;;;774317;179;924223;-61
2023/07/23 08:11:59;;;;;;;6.83;3.93;;;;;;;;;;777294;179;845066;-61
2023/07/23 08:14:25;;;;;;;5.50;3.87;;;;;;;;;;773361;179;919645;-57
2023/07/23 08:16:54;;;;;;;4.30;2.87;;;;;;;;;;770376;180;919352;-61
2023/07/23 08:19:17;;;;;;;7.70;3.70;;;;;;;;;;778728;179;819343;-62
2023/07/23 08:21:43;;;;;;;8.33;3.77;;;;;;;;;;773419;179;921419;-57
2023/07/23 08:24:09;;;;;;;5.37;4.20;;;;;;;;;;776103;178;922447;-61
2023/07/23 08:26:35;;;;;;;6.07;3.57;;;;;;;;;;781177;179;622122;-57
2023/07/23 08:29:01;;;;;;;5.00;3.83;;;;;;;;;;773574;179;791538;-57
2023/07/23 08:31:27;;;;;;;5.30;3.30;;;;;;;;;;771930;180;906256;-62
2023/07/23 08:33:53;;;;;;;5.73;3.40;;;;;;;;;;775143;179;626287;-63
2023/07/23 08:36:19;;;;;;;9.27;3.20;;;;;;;;;;782147;180;672600;-63
2023/07/23 08:38:45;;;;;;;4.70;3.53;;;;;;;;;;777766;180;615589;-57
2023/07/23 08:41:26;;;;;;;5.23;4.13;;;;;;;;;;774760;180;929708;-63
2023/07/23 08:43:54;;;;;;;4.93;3.60;;;;;;;;;;776998;178;919796;-62
2023/07/23 08:46:21;;;;;;;13.07;3.93;;;;;;;;;;777035;180;826039;-62
2023/07/23 08:48:46;;;;;;;6.40;4.47;;;;;;;;;;776320;180;667953;-58
2023/07/23 08:51:12;;;;;;;5.70;3.97;;;;;;;;;;773427;180;632094;-64
2023/07/23 08:53:38;;;;;;;5.37;3.70;;;;;;;;;;775972;179;622392;-63
2023/07/23 08:56:04;;;;;;;5.63;3.33;;;;;;;;;;779163;179;630593;-62
2023/07/23 08:58:30;;;;;;;6.67;4.27;;;;;;;;;;775994;179;734534;-63
2023/07/23 09:00:56;;;;;;;4.70;3.10;;;;;;;;;;775239;180;630459;-63
2023/07/23 09:03:21;;;;;;;5.30;3.50;;;;;;;;;;776269;180;621594;-59
2023/07/23 09:05:47;;;;;;;5.43;3.60;;;;;;;;;;777754;181;622245;-58
2023/07/23 09:08:13;;;;;;;7.67;5.20;;;;;;;;;;780717;178;624099;-63
2023/07/23 09:10:40;;;;;;;5.80;3.77;;;;;;;;;;780582;179;629013;-64
2023/07/23 09:13:09;;;;;;;6.70;4.47;;;;;;;;;;776631;179;913254;-58
2023/07/23 09:15:34;;;;;;;5.33;3.93;;;;;;;;;;772331;179;939479;-63
2023/07/23 09:18:00;;;;;;;5.30;3.70;;;;;;;;;;776590;180;625664;-63
2023/07/23 09:20:26;;;;;;;6.07;3.43;;;;;;;;;;773022;181;619321;-58
2023/07/23 09:22:52;;;;;;;5.77;4.00;;;;;;;;;;774613;179;896486;-63
2023/07/23 09:25:18;;;;;;;5.07;3.40;;;;;;;;;;775213;180;634329;-63
2023/07/23 09:27:44;;;;;;;7.10;3.53;;;;;;;;;;781460;180;615155;-65
2023/07/23 09:30:15;;;;;;;6.20;3.97;;;;;;;;;;777469;179;623128;-63
2023/07/23 09:32:41;;;;;;;5.47;3.20;;;;;;;;;;780088;179;632439;-60
2023/07/23 09:35:07;;;;;;;9.37;3.40;;;;;;;;;;775592;180;631737;-60
2023/07/23 09:37:35;;;;;;;6.90;4.13;;;;;;;;;;771765;180;633371;-64
2023/07/23 09:39:59;;;;;;;6.67;3.43;;;;;;;;;;775243;179;620097;-58
2023/07/23 09:42:25;;;;;;;7.87;4.00;;;;;;;;;;778828;180;629590;-60
2023/07/23 09:44:51;;;;;;;5.80;4.00;;;;;;;;;;780081;180;634916;-65
2023/07/23 09:47:16;;;;;;;5.30;3.57;;;;;;;;;;776699;180;629048;-58
2023/07/23 09:49:42;;;;;;;5.27;3.20;;;;;;;;;;775438;180;627051;-58
2023/07/23 09:52:08;;;;;;;5.23;3.63;;;;;;;;;;782847;180;618990;-65
2023/07/23 09:54:35;;;;;;;6.37;3.70;;;;;;;;;;778412;180;632651;-64
2023/07/23 09:57:01;;;;;;;5.80;4.37;;;;;;;;;;772960;180;807323;-58
2023/07/23 09:59:26;;;;;;;6.90;4.00;;;;;;;;;;778425;180;869374;-65
2023/07/23 10:01:52;;;;;;;5.47;4.00;;;;;;;;;;764853;181;809746;-66
2023/07/23 10:04:18;;;;;;;8.20;3.77;;;;;;;;;;771934;180;817022;-66
2023/07/23 10:06:44;;;;;;;5.27;3.43;;;;;;;;;;773076;180;816314;-59
2023/07/23 10:09:10;;;;;;;8.60;3.70;;;;;;;;;;781064;180;869242;-59
2023/07/23 10:11:36;;;;;;;7.50;4.27;;;;;;;;;;774067;179;913904;-65
2023/07/23 10:14:02;;;;;;;6.13;3.67;;;;;;;;;;771788;179;916778;-58
2023/07/23 10:16:27;;;;;;;5.37;3.80;;;;;;;;;;777560;179;924515;-58
2023/07/23 10:18:53;;;;;;;5.63;3.83;;;;;;;;;;772527;179;797953;-63
2023/07/23 10:21:19;;;;;;;5.03;3.70;;;;;;;;;;775906;178;917684;-63
2023/07/23 10:23:45;;;;;;;5.43;3.60;;;;;;;;;;780419;180;919735;-62
2023/07/23 10:26:17;;;;;;;7.97;4.20;;;;;;;;;;774114;179;920664;-64
2023/07/23 10:28:42;;;;;;;6.30;3.87;;;;;;;;;;775629;179;869105;-59
2023/07/23 10:31:14;;;;;;;7.50;4.27;;;;;;;;;;770196;180;877388;-63
2023/07/23 10:33:40;;;;;;;4.50;3.30;;;;;;;;;;779317;179;917920;-58
2023/07/23 10:36:06;;;;;;;5.20;3.40;;;;;;;;;;777338;179;919550;-62
2023/07/23 10:38:32;;;;;;;6.33;3.70;;;;;;;;;;774657;179;916225;-58
2023/07/23 10:40:58;;;;;;;5.87;3.97;;;;;;;;;;769205;180;918991;-59
2023/07/23 10:43:24;;;;;;;4.73;3.67;;;;;;;;;;774858;180;840006;-63
2023/07/23 10:45:53;;;;;;;5.20;3.60;;;;;;;;;;772231;179;916835;-62
2023/07/23 10:48:19;;;;;;;6.10;3.90;;;;;;;;;;773877;179;918210;-64
2023/07/23 10:50:50;;;;;;;6.40;3.53;;;;;;;;;;775133;180;626976;-65
2023/07/23 10:53:16;;;;;;;6.20;4.20;;;;;;;;;;779423;180;624107;-58
2023/07/23 10:55:47;;;;;;;9.63;4.50;;;;;;;;;;777038;179;617515;-58
2023/07/23 10:58:10;;;;;;;6.07;3.90;;;;;;;;;;773029;180;628210;-63
2023/07/23 11:00:35;;;;;;;6.60;4.43;;;;;;;;;;780396;179;630993;-64
2023/07/23 11:03:00;;;;;;;6.57;3.63;;;;;;;;;;775197;180;625109;-59
2023/07/23 11:05:26;;;;;;;7.77;3.90;;;;;;;;;;779220;179;613489;-59
2023/07/23 11:08:09;;;;;;;6.23;3.63;;;;;;;;;;782086;181;622457;-64
2023/07/23 11:10:37;;;;;;;4.73;3.60;;;;;;;;;;782650;180;626736;-64
2023/07/23 11:13:03;;;;;;;6.40;3.67;;;;;;;;;;776780;180;635661;-64
2023/07/23 11:15:28;;;;;;;11.17;4.00;;;;;;;;;;772716;179;626501;-65
2023/07/23 11:17:54;;;;;;;5.87;3.80;;;;;;;;;;772446;180;623698;-59
2023/07/23 11:20:20;;;;;;;4.40;3.50;;;;;;;;;;772271;181;627187;-63
2023/07/23 11:22:46;;;;;;;5.43;4.20;;;;;;;;;;775669;180;626144;-64
2023/07/23 11:25:14;;;;;;;5.20;3.77;;;;;;;;;;778046;180;639137;-59
2023/07/23 11:27:40;;;;;;;7.93;3.83;;;;;;;;;;781186;180;622538;-65
2023/07/23 11:30:06;;;;;;;4.87;3.27;;;;;;;;;;776336;177;625094;-65
2023/07/23 11:32:32;;;;;;;5.23;3.60;;;;;;;;;;774894;179;668507;-65
2023/07/23 11:34:58;;;;;;;6.43;3.70;;;;;;;;;;783156;179;629180;-60
2023/07/23 11:37:23;;;;;;;6.70;4.40;;;;;;;;;;779705;179;652954;-59
2023/07/23 11:39:50;;;;;;;7.50;3.90;;;;;;;;;;774588;179;628424;-64
2023/07/23 11:42:16;;;;;;;6.43;4.07;;;;;;;;;;778099;179;629985;-64
2023/07/23 11:44:42;;;;;;;5.70;3.60;;;;;;;;;;775872;180;920796;-58
2023/07/23 11:47:08;;;;;;;7.73;3.67;;;;;;;;;;773458;179;890275;-59
2023/07/23 11:49:33;;;;;;;4.77;3.57;;;;;;;;;;773683;180;913335;-59
2023/07/23 11:51:59;;;;;;;3.60;2.90;;;;;;;;;;779287;179;629248;-64
2023/07/23 11:54:25;;;;;;;8.90;4.10;;;;;;;;;;773358;180;637198;-59
2023/07/23 11:56:51;;;;;;;7.50;3.77;;;;;;;;;;775851;180;623167;-65
2023/07/23 11:59:17;;;;;;;13.73;3.90;;;;;;;;;;779048;180;627449;-66
2023/07/23 12:01:43;;;;;;;5.77;3.87;;;;;;;;;;774077;180;633535;-63
2023/07/23 12:04:08;;;;;;;4.03;3.20;;;;;;;;;;775277;180;625037;-65
2023/07/23 12:06:35;;;;;;;7.10;3.97;;;;;;;;;;780508;179;628871;-64
2023/07/23 12:09:00;;;;;;;6.33;3.70;;;;;;;;;;776082;181;635973;-58
2023/07/23 12:11:29;;;;;;;6.40;3.60;;;;;;;;;;775132;180;681411;-60
2023/07/23 12:13:54;;;;;;;8.80;3.93;;;;;;;;;;775578;180;616596;-66
2023/07/23 12:16:26;;;;;;;7.37;4.47;;;;;;;;;;782348;180;646047;-64
2023/07/23 12:18:51;;;;;;;6.27;4.50;;;;;;;;;;775957;181;634066;-59
2023/07/23 12:21:17;;;;;;;6.60;4.20;;;;;;;;;;775900;180;618750;-62
2023/07/23 12:23:43;;;;;;;17.33;4.50;;;;;;;;;;778384;180;633374;-59
2023/07/23 12:26:09;;;;;;;12.70;4.20;;;;;;;;;;782479;180;618593;-63
2023/07/23 12:28:35;;;;;;;7.23;4.43;;;;;;;;;;778794;180;615598;-65
2023/07/23 12:31:01;;;;;;;5.33;3.80;;;;;;;;;;776282;180;628552;-59
2023/07/23 12:33:26;;;;;;;6.50;4.33;;;;;;;;;;777494;180;621025;-65
2023/07/23 12:35:52;;;;;;;7.00;3.87;;;;;;;;;;770831;180;918457;-59
2023/07/23 12:38:18;;;;;;;5.00;3.93;;;;;;;;;;775076;179;914682;-58
2023/07/23 12:40:44;;;;;;;5.73;4.33;;;;;;;;;;775916;181;818763;-59
2023/07/23 12:43:10;;;;;;;6.53;4.07;;;;;;;;;;778086;178;716251;-59
2023/07/23 12:45:36;;;;;;;8.60;4.60;;;;;;;;;;776909;179;619537;-59
2023/07/23 12:48:02;;;;;;;6.17;3.80;;;;;;;;;;780782;179;619007;-64
2023/07/23 12:50:27;;;;;;;6.00;4.10;;;;;;;;;;780868;178;635311;-58
2023/07/23 12:52:53;;;;;;;15.60;4.90;;;;;;;;;;776906;180;626202;-58
2023/07/23 12:55:19;;;;;;;5.70;3.60;;;;;;;;;;776378;180;645178;-58
2023/07/23 12:57:45;;;;;;;5.60;3.93;;;;;;;;;;780079;179;619045;-59
2023/07/23 13:00:11;;;;;;;5.70;4.30;;;;;;;;;;778273;178;633766;-63
2023/07/23 13:02:37;;;;;;;5.43;3.50;;;;;;;;;;779225;178;618947;-59
2023/07/23 13:05:03;;;;;;;10.53;4.43;;;;;;;;;;781194;180;629955;-60
2023/07/23 13:07:29;;;;;;;5.17;3.80;;;;;;;;;;776947;179;633555;-64
2023/07/23 13:09:54;;;;;;;7.35;4.53;;;;;;;;;;776016;179;629179;-64
2023/07/23 13:12:20;;;;;;;5.20;3.87;;;;;;;;;;777002;180;915468;-58
2023/07/23 13:14:46;;;;;;;6.93;4.83;;;;;;;;;;778588;180;847796;-58
2023/07/23 13:17:12;;;;;;;7.60;4.27;;;;;;;;;;775893;179;649989;-58
2023/07/23 13:19:38;;;;;;;7.10;4.40;;;;;;;;;;776177;179;641789;-58
2023/07/23 13:22:04;;;;;;;5.40;3.87;;;;;;;;;;781583;180;628215;-58
2023/07/23 13:24:29;;;;;;;5.80;4.07;;;;;;;;;;777379;179;630375;-59
2023/07/23 13:26:55;;;;;;;6.37;4.07;;;;;;;;;;771330;180;822345;-63
2023/07/23 13:29:21;;;;;;;12.73;4.40;;;;;;;;;;780815;180;624293;-59
2023/07/23 13:31:47;;;;;;;10.33;5.50;;;;;;;;;;774450;179;718308;-63
2023/07/23 13:34:13;;;;;;;5.53;3.70;;;;;;;;;;774431;180;920450;-57
2023/07/23 13:36:39;;;;;;;6.10;4.80;;;;;;;;;;775826;180;817849;-57
2023/07/23 13:39:04;;;;;;;5.97;3.90;;;;;;;;;;775484;179;649529;-61
2023/07/23 13:41:30;;;;;;;15.97;6.47;;;;;;;;;;774665;180;637799;-62
2023/07/23 13:43:56;;;;;;;17.53;5.37;;;;;;;;;;777959;179;622311;-62
2023/07/23 13:46:22;;;;;;;13.20;4.83;;;;;;;;;;776222;180;616052;-58
2023/07/23 13:48:48;;;;;;;10.10;4.20;;;;;;;;;;776004;180;629520;-58
2023/07/23 13:51:14;;;;;;;7.00;3.60;;;;;;;;;;774779;179;623683;-58
2023/07/23 13:53:39;;;;;;;7.20;3.47;;;;;;;;;;781786;179;636177;-58
2023/07/23 13:56:05;;;;;;;6.80;4.03;;;;;;;;;;781495;179;619712;-63
2023/07/23 13:58:33;;;;;;;5.77;3.93;;;;;;;;;;778714;179;649233;-63
2023/07/23 14:00:57;;;;;;;13.23;4.00;;;;;;;;;;781600;179;629817;-63
2023/07/23 14:03:24;;;;;;;4.67;3.90;;;;;;;;;;778424;179;632275;-58
2023/07/23 14:05:49;;;;;;;8.83;4.87;;;;;;;;;;777433;180;629690;-58
2023/07/23 14:08:15;;;;;;;6.27;4.60;;;;;;;;;;782967;180;619894;-58
2023/07/23 14:10:41;;;;;;;6.10;3.70;;;;;;;;;;777870;179;625462;-59
2023/07/23 14:13:06;;;;;;;11.90;3.90;;;;;;;;;;775867;180;631462;-58
2023/07/23 14:15:32;;;;;;;7.87;3.47;;;;;;;;;;776803;179;626464;-62
2023/07/23 14:17:58;;;;;;;36.83;6.00;;;;;;;;;;781641;180;627333;-63
2023/07/23 14:20:24;;;;;;;7.03;4.40;;;;;;;;;;775869;179;632559;-63
2023/07/23 14:22:50;;;;;;;6.67;4.70;;;;;;;;;;777609;179;643956;-58
2023/07/23 14:25:16;;;;;;;5.57;3.70;;;;;;;;;;780240;178;628529;-63
2023/07/23 14:27:41;;;;;;;6.03;4.27;;;;;;;;;;775768;179;626483;-63
2023/07/23 14:30:08;;;;;;;5.87;4.20;;;;;;;;;;779462;179;622522;-61
2023/07/23 14:32:33;;;;;;;8.30;5.00;;;;;;;;;;779458;180;637630;-58